createdAt,value
2023-05-14T00:01:09.990Z,101417.00
2023-05-14T00:03:37.624Z,101409.91
2023-05-14T00:06:04.519Z,101402.88
2023-05-14T00:08:31.116Z,101405.53
2023-05-14T00:10:57.788Z,101402.84
2023-05-14T00:13:25.781Z,101402.84
2023-05-14T00:15:52.464Z,101399.31
2023-05-14T00:18:19.120Z,101401.16
2023-05-14T00:20:45.856Z,101403.81
2023-05-14T00:23:12.793Z,101395.91
2023-05-14T00:25:42.666Z,101396.75
2023-05-14T00:28:11.735Z,101395.91
2023-05-14T00:30:39.799Z,101400.28
2023-05-14T00:33:07.474Z,101394.16
2023-05-14T00:35:40.437Z,101393.28
2023-05-14T00:38:07.410Z,101403.84
2023-05-14T00:40:34.275Z,101393.28
2023-05-14T00:43:00.931Z,101393.28
2023-05-14T00:45:27.982Z,101388.03
2023-05-14T00:47:54.927Z,101392.38
2023-05-14T00:50:21.980Z,101387.09
2023-05-14T00:52:48.861Z,101391.50
2023-05-14T00:55:17.256Z,101387.97
2023-05-14T00:57:44.348Z,101386.22
2023-05-14T01:00:11.365Z,101385.34
2023-05-14T01:02:38.100Z,101394.13
2023-05-14T01:05:05.244Z,101390.56
2023-05-14T01:08:17.990Z,101386.22
2023-05-14T01:11:00.642Z,101387.09
2023-05-14T01:13:34.061Z,101387.94
2023-05-14T01:16:01.472Z,101388.88
2023-05-14T01:18:28.309Z,101382.69
2023-05-14T01:20:54.982Z,101390.63
2023-05-14T01:23:21.596Z,101391.50
2023-05-14T01:25:48.215Z,101388.84
2023-05-14T01:28:28.767Z,101383.59
2023-05-14T01:31:11.183Z,101391.47
2023-05-14T01:33:40.241Z,101381.81
2023-05-14T01:36:07.062Z,101387.13
2023-05-14T01:38:34.558Z,101382.72
2023-05-14T01:41:01.648Z,101379.22
2023-05-14T01:43:28.682Z,101369.56
2023-05-14T01:45:55.656Z,101382.75
2023-05-14T01:48:22.514Z,101373.13
2023-05-14T01:50:49.216Z,101377.53
2023-05-14T01:53:15.864Z,101372.25
2023-05-14T01:55:42.499Z,101366.06
2023-05-14T01:58:09.190Z,101371.31
2023-05-14T02:00:35.865Z,101369.53
2023-05-14T02:03:02.585Z,101366.03
2023-05-14T02:05:29.271Z,101366.94
2023-05-14T02:07:56.061Z,101358.22
2023-05-14T02:10:23.016Z,101358.25
2023-05-14T02:12:49.976Z,101356.53
2023-05-14T02:15:16.724Z,101354.78
2023-05-14T02:17:43.418Z,101358.31
2023-05-14T02:20:10.601Z,101355.66
2023-05-14T02:22:37.607Z,101357.47
2023-05-14T02:25:04.449Z,101358.34
2023-05-14T02:27:31.598Z,101359.22
2023-05-14T02:30:00.807Z,101356.59
2023-05-14T02:32:28.049Z,101352.22
2023-05-14T02:34:54.783Z,101353.09
2023-05-14T02:37:21.430Z,101351.34
2023-05-14T02:39:49.091Z,101351.34
2023-05-14T02:42:15.738Z,101352.22
2023-05-14T02:44:42.588Z,101348.72
2023-05-14T02:47:09.370Z,101345.22
2023-05-14T02:49:36.149Z,101350.44
2023-05-14T02:52:03.464Z,101350.44
2023-05-14T02:54:30.096Z,101347.81
2023-05-14T02:56:58.044Z,101355.75
2023-05-14T02:59:24.924Z,101346.94
2023-05-14T03:01:52.109Z,101349.59
2023-05-14T03:04:21.320Z,101346.09
2023-05-14T03:06:47.980Z,101354.84
2023-05-14T03:09:14.595Z,101356.59
2023-05-14T03:11:41.274Z,101356.59
2023-05-14T03:14:07.890Z,101358.34
2023-05-14T03:16:34.573Z,101353.09
2023-05-14T03:19:01.299Z,101346.97
2023-05-14T03:21:27.945Z,101346.97
2023-05-14T03:23:54.607Z,101349.59
2023-05-14T03:26:21.679Z,101347.84
2023-05-14T03:28:48.526Z,101354.81
2023-05-14T03:31:15.232Z,101347.81
2023-05-14T03:33:41.968Z,101355.72
2023-05-14T03:36:08.717Z,101351.31
2023-05-14T03:38:35.327Z,101356.63
2023-05-14T03:41:01.971Z,101355.69
2023-05-14T03:43:28.538Z,101353.94
2023-05-14T03:45:55.142Z,101355.69
2023-05-14T03:48:21.819Z,101347.84
2023-05-14T03:50:48.736Z,101353.97
2023-05-14T03:53:16.835Z,101347.84
2023-05-14T03:55:43.599Z,101351.34
2023-05-14T03:58:14.521Z,101345.19
2023-05-14T04:00:44.454Z,101347.84
2023-05-14T04:03:11.787Z,101335.53
2023-05-14T04:05:38.584Z,101335.50
2023-05-14T04:08:06.070Z,101341.66
2023-05-14T04:10:32.845Z,101337.25
2023-05-14T04:12:59.537Z,101334.59
2023-05-14T04:15:26.266Z,101341.63
2023-05-14T04:17:52.953Z,101333.69
2023-05-14T04:20:19.660Z,101328.38
2023-05-14T04:22:46.517Z,101332.78
2023-05-14T04:25:13.198Z,101335.41
2023-05-14T04:27:40.169Z,101338.84
2023-05-14T04:30:08.447Z,101337.06
2023-05-14T04:32:35.484Z,101342.28
2023-05-14T04:35:02.545Z,101333.47
2023-05-14T04:37:29.195Z,101340.44
2023-05-14T04:39:55.799Z,101329.84
2023-05-14T04:42:22.660Z,101334.25
2023-05-14T04:44:49.374Z,101331.56
2023-05-14T04:47:16.173Z,101336.00
2023-05-14T04:49:43.332Z,101329.00
2023-05-14T04:52:10.042Z,101329.94
2023-05-14T04:54:36.763Z,101333.41
2023-05-14T04:57:03.478Z,101331.56
2023-05-14T04:59:30.617Z,101327.81
2023-05-14T05:01:57.412Z,101326.72
2023-05-14T05:04:24.160Z,101317.91
2023-05-14T05:06:50.908Z,101317.94
2023-05-14T05:09:18.230Z,101310.00
2023-05-14T05:11:44.871Z,101319.69
2023-05-14T05:14:11.517Z,101313.41
2023-05-14T05:16:38.160Z,101321.22
2023-05-14T05:19:04.906Z,101321.19
2023-05-14T05:21:31.666Z,101314.78
2023-05-14T05:23:58.301Z,101313.69
2023-05-14T05:26:26.820Z,101304.69
2023-05-14T05:28:53.556Z,101308.00
2023-05-14T05:31:20.498Z,101299.22
2023-05-14T05:33:47.175Z,101305.69
2023-05-14T05:36:13.851Z,101293.38
2023-05-14T05:38:40.506Z,101292.81
2023-05-14T05:41:07.546Z,101295.59
2023-05-14T05:43:34.221Z,101293.78
2023-05-14T05:46:01.057Z,101287.66
2023-05-14T05:48:28.218Z,101292.06
2023-05-14T05:50:54.862Z,101294.88
2023-05-14T05:53:21.566Z,101293.47
2023-05-14T05:55:48.219Z,101287.94
2023-05-14T05:58:17.162Z,101293.97
2023-05-14T06:00:44.283Z,101281.53
2023-05-14T06:03:11.477Z,101284.97
2023-05-14T06:05:38.297Z,101282.97
2023-05-14T06:08:05.242Z,101278.00
2023-05-14T06:10:32.234Z,101277.63
2023-05-14T06:12:59.012Z,101275.84
2023-05-14T06:15:25.685Z,101272.75
2023-05-14T06:17:52.449Z,101269.97
2023-05-14T06:20:19.237Z,101272.56
2023-05-14T06:22:45.948Z,101266.56
2023-05-14T06:25:12.606Z,101269.06
2023-05-14T06:27:39.217Z,101270.25
2023-05-14T06:30:07.033Z,101272.78
2023-05-14T06:32:33.705Z,101273.66
2023-05-14T06:35:00.351Z,101274.53
2023-05-14T06:37:27.010Z,101281.69
2023-05-14T06:39:54.370Z,101286.53
2023-05-14T06:42:21.825Z,101281.69
2023-05-14T06:44:48.447Z,101283.13
2023-05-14T06:47:15.051Z,101273.41
2023-05-14T06:49:41.640Z,101276.25
2023-05-14T06:52:08.272Z,101276.22
2023-05-14T06:54:34.913Z,101282.63
2023-05-14T06:57:01.606Z,101282.97
2023-05-14T06:59:28.230Z,101286.47
2023-05-14T07:01:54.869Z,101282.13
2023-05-14T07:04:21.557Z,101282.56
2023-05-14T07:06:48.228Z,101281.69
2023-05-14T07:09:15.800Z,101270.75
2023-05-14T07:11:42.402Z,101268.97
2023-05-14T07:14:08.996Z,101272.84
2023-05-14T07:16:36.025Z,101266.69
2023-05-14T07:19:02.688Z,101260.19
2023-05-14T07:21:29.349Z,101256.78
2023-05-14T07:23:56.152Z,101257.03
2023-05-14T07:26:24.592Z,101256.00
2023-05-14T07:28:51.248Z,101251.38
2023-05-14T07:31:17.900Z,101254.19
2023-05-14T07:33:44.631Z,101255.69
2023-05-14T07:36:11.234Z,101245.22
2023-05-14T07:38:37.892Z,101237.69
2023-05-14T07:41:04.755Z,101235.34
2023-05-14T07:43:31.684Z,101232.41
2023-05-14T07:45:58.438Z,101235.38
2023-05-14T07:48:25.149Z,101240.56
2023-05-14T07:50:51.928Z,101233.25
2023-05-14T07:53:18.554Z,101235.56
2023-05-14T07:55:45.719Z,101234.78
2023-05-14T07:58:12.337Z,101244.00
2023-05-14T08:00:39.161Z,101238.97
2023-05-14T08:03:05.938Z,101235.44
2023-05-14T08:05:33.044Z,101233.78
2023-05-14T08:10:27.016Z,101237.88
2023-05-14T08:12:54.002Z,101232.66
2023-05-14T08:15:21.045Z,101228.66
2023-05-14T08:17:47.752Z,101225.06
2023-05-14T08:20:14.543Z,101234.94
2023-05-14T08:22:41.381Z,101234.22
2023-05-14T08:25:08.166Z,101232.25
2023-05-14T08:27:34.827Z,101231.38
2023-05-14T08:30:01.539Z,101232.81
2023-05-14T08:32:28.190Z,101230.75
2023-05-14T08:34:54.862Z,101219.84
2023-05-14T08:37:21.526Z,101226.97
2023-05-14T08:39:48.152Z,101225.88
2023-05-14T08:42:15.769Z,101218.78
2023-05-14T08:44:51.878Z,101223.81
2023-05-14T08:47:19.140Z,101213.34
2023-05-14T09:02:31.385Z,101209.72
2023-05-14T09:05:00.430Z,101212.56
2023-05-14T09:07:27.648Z,101205.97
2023-05-14T09:09:54.666Z,101212.66
2023-05-14T09:12:21.875Z,101203.66
2023-05-14T09:14:49.740Z,101199.25
2023-05-14T09:17:16.978Z,101205.91
2023-05-14T09:19:44.320Z,101209.13
2023-05-14T09:22:15.773Z,101202.59
2023-05-14T09:24:42.464Z,101198.72
2023-05-14T09:27:10.556Z,101192.25
2023-05-14T09:29:37.246Z,101205.50
2023-05-14T09:32:10.238Z,101198.69
2023-05-14T09:34:39.776Z,101197.75
2023-05-14T09:37:10.040Z,101188.97
2023-05-14T09:39:37.428Z,101196.38
2023-05-14T09:42:04.751Z,101192.75
2023-05-14T09:44:40.349Z,101186.56
2023-05-14T09:47:16.368Z,101187.09
2023-05-14T09:49:45.014Z,101176.56
2023-05-14T09:52:13.745Z,101173.53
2023-05-14T09:54:41.491Z,101165.31
2023-05-14T09:57:08.281Z,101158.13
2023-05-14T09:59:35.005Z,101156.38
2023-05-14T10:02:02.208Z,101149.53
2023-05-14T10:04:29.145Z,101149.75
2023-05-14T10:06:56.202Z,101134.44
2023-05-14T10:09:28.001Z,101138.25
2023-05-14T10:12:00.246Z,101134.03
2023-05-14T10:26:39.492Z,101112.69
2023-05-14T10:29:06.793Z,101101.41
2023-05-14T10:31:49.930Z,101105.72
2023-05-14T10:34:41.276Z,101107.59
2023-05-14T10:37:10.585Z,101110.00
2023-05-14T10:40:02.197Z,101100.06
2023-05-14T10:42:40.627Z,101099.47
2023-05-14T10:45:08.846Z,101101.06
2023-05-14T10:47:40.596Z,101084.31
2023-05-14T10:50:09.653Z,101082.78
2023-05-14T10:52:36.847Z,101076.13
2023-05-14T10:55:10.800Z,101063.41
2023-05-14T10:57:39.107Z,101058.44
2023-05-14T11:00:10.793Z,101060.00
2023-05-14T11:02:44.948Z,101064.41
2023-05-14T11:05:15.485Z,101059.47
2023-05-14T11:07:49.675Z,101048.78
2023-05-14T11:10:26.133Z,101045.22
2023-05-14T11:13:06.492Z,101040.25
2023-05-14T11:15:36.889Z,101055.88
2023-05-14T11:18:04.507Z,101037.56
2023-05-14T11:20:32.869Z,101040.34
2023-05-14T11:23:00.634Z,101024.03
2023-05-14T11:25:27.392Z,101027.63
2023-05-14T11:27:58.410Z,101029.16
2023-05-14T11:30:25.280Z,101025.91
2023-05-14T11:32:52.533Z,101026.78
2023-05-14T11:35:19.156Z,101031.91
2023-05-14T11:37:55.318Z,101023.25
2023-05-14T11:40:22.221Z,101022.03
2023-05-14T11:42:51.608Z,101021.66
2023-05-14T11:45:26.438Z,101020.69
2023-05-14T11:47:56.481Z,101027.03
2023-05-14T11:50:41.631Z,101024.88
2023-05-14T11:53:12.565Z,101018.16
2023-05-14T11:59:46.732Z,101021.41
2023-05-14T12:02:16.068Z,101016.66
2023-05-14T12:04:43.634Z,101010.22
2023-05-14T12:07:15.670Z,101025.13
2023-05-14T12:12:38.417Z,101008.78
2023-05-14T12:15:15.263Z,101010.19
2023-05-14T12:17:42.193Z,101012.25
2023-05-14T12:23:47.100Z,100995.75
2023-05-14T12:26:13.890Z,100999.75
2023-05-14T12:28:43.736Z,100998.34
2023-05-14T12:35:01.279Z,100993.22
2023-05-14T12:37:30.070Z,100983.69
2023-05-14T12:39:58.225Z,100984.09
2023-05-14T12:42:32.835Z,100980.09
2023-05-14T12:45:03.827Z,100975.47
2023-05-14T14:08:23.931Z,100883.19
2023-05-14T14:10:51.715Z,100882.25
2023-05-14T14:13:18.363Z,100866.66
2023-05-14T14:15:45.079Z,100872.78
2023-05-14T14:18:11.774Z,100866.34
2023-05-14T14:20:38.485Z,100866.78
2023-05-14T14:23:05.095Z,100865.78
2023-05-14T14:25:31.775Z,100864.28
2023-05-14T14:27:58.464Z,100860.25
2023-05-14T14:30:25.175Z,100866.34
2023-05-14T14:32:53.583Z,100874.41
2023-05-14T14:35:23.694Z,100856.56
2023-05-14T14:37:53.312Z,100864.66
2023-05-14T14:40:20.000Z,100857.13
2023-05-14T14:42:46.728Z,100864.59
2023-05-14T14:45:13.907Z,100860.69
2023-05-14T14:47:47.002Z,100857.41
2023-05-14T14:50:27.729Z,100849.97
2023-05-14T14:52:59.957Z,100851.00
2023-05-14T14:55:42.493Z,100845.72
2023-05-14T14:58:09.285Z,100847.38
2023-05-14T15:00:35.960Z,100839.13
2023-05-14T15:03:02.653Z,100837.31
2023-05-14T15:05:29.296Z,100844.34
2023-05-14T15:07:55.996Z,100832.00
2023-05-14T15:10:22.667Z,100830.88
2023-05-14T15:13:33.482Z,100831.38
2023-05-14T15:42:27.399Z,100805.19
2023-05-14T15:44:55.019Z,100811.09
2023-05-14T15:47:21.642Z,100808.72
2023-05-14T15:49:48.235Z,100800.06
2023-05-14T15:52:14.872Z,100799.19
2023-05-14T15:54:41.489Z,100794.69
2023-05-14T15:57:08.144Z,100798.19
2023-05-14T15:59:34.773Z,100802.25
2023-05-14T16:02:01.717Z,100794.03
2023-05-14T16:04:28.380Z,100789.72
2023-05-14T16:06:55.133Z,100792.63
2023-05-14T16:09:21.725Z,100784.00
2023-05-14T16:11:51.186Z,100777.81
2023-05-14T16:14:18.479Z,100783.28
2023-05-14T16:16:45.240Z,100769.28
2023-05-14T16:19:12.035Z,100768.06
2023-05-14T16:21:38.783Z,100767.09
2023-05-14T16:24:06.265Z,100767.69
2023-05-14T16:26:33.065Z,100759.75
2023-05-14T16:28:59.763Z,100755.69
2023-05-14T16:31:26.485Z,100757.06
2023-05-14T16:33:53.250Z,100758.13
2023-05-14T16:36:20.092Z,100761.34
2023-05-14T16:39:06.265Z,100748.13
2023-05-14T16:41:35.022Z,100746.38
2023-05-14T16:44:01.720Z,100758.84
2023-05-14T16:46:29.237Z,100752.22
2023-05-14T16:48:56.575Z,100751.19
2023-05-14T16:51:23.282Z,100749.94
2023-05-14T16:53:50.172Z,100745.13
2023-05-14T16:56:17.225Z,100743.88
2023-05-14T16:58:43.821Z,100748.09
2023-05-14T17:01:10.550Z,100738.41
2023-05-14T17:03:37.221Z,100746.25
2023-05-14T17:06:04.686Z,100738.50
2023-05-14T17:08:33.557Z,100752.94
2023-05-14T17:11:00.363Z,100747.97
2023-05-14T17:13:26.972Z,100747.94
2023-05-14T17:15:53.610Z,100752.31
2023-05-14T17:18:20.475Z,100748.38
2023-05-14T17:20:47.247Z,100747.84
2023-05-14T17:23:13.877Z,100753.19
2023-05-14T17:25:40.520Z,100754.25
2023-05-14T17:28:07.155Z,100755.78
2023-05-14T17:30:33.852Z,100750.94
2023-05-14T17:33:00.660Z,100757.22
2023-05-14T17:35:27.570Z,100756.59
2023-05-14T17:37:54.240Z,100755.97
2023-05-14T17:40:20.916Z,100757.34
2023-05-14T17:42:47.520Z,100752.69
2023-05-14T17:45:15.432Z,100755.91
2023-05-14T17:47:42.311Z,100759.59
2023-05-14T17:50:09.129Z,100756.44
2023-05-14T17:52:35.984Z,100757.16
2023-05-14T17:55:02.646Z,100754.56
2023-05-14T17:57:29.260Z,100754.00
2023-05-14T17:59:55.897Z,100751.94
2023-05-14T18:02:22.510Z,100753.38
2023-05-14T18:04:49.127Z,100756.78
2023-05-14T18:07:16.404Z,100759.91
2023-05-14T18:09:43.043Z,100757.28
2023-05-14T18:12:10.012Z,100745.09
2023-05-14T18:14:36.863Z,100757.13
2023-05-14T18:17:03.828Z,100753.25
2023-05-14T18:19:30.473Z,100760.97
2023-05-14T18:21:57.161Z,100761.34
2023-05-14T18:24:23.858Z,100758.34
2023-05-14T18:26:50.552Z,100759.91
2023-05-14T18:29:17.178Z,100759.13
2023-05-14T18:31:43.893Z,100761.00
2023-05-14T18:34:10.707Z,100757.22
2023-05-14T18:36:37.679Z,100761.69
2023-05-14T18:39:04.998Z,100757.88
2023-05-14T18:41:31.639Z,100761.81
2023-05-14T18:43:58.262Z,100763.66
2023-05-14T18:46:25.226Z,100765.88
2023-05-14T18:48:51.927Z,100765.59
2023-05-14T18:51:18.628Z,100766.59
2023-05-14T18:53:45.253Z,100768.13
2023-05-14T18:56:11.899Z,100764.28
2023-05-14T18:58:38.562Z,100775.88
2023-05-14T19:01:05.331Z,100775.38
2023-05-14T19:03:32.047Z,100773.13
2023-05-14T19:05:58.760Z,100774.63
2023-05-14T19:08:25.478Z,100764.47
2023-05-14T19:10:52.938Z,100769.28
2023-05-14T19:13:19.695Z,100766.19
2023-05-14T19:15:46.358Z,100774.31
2023-05-14T19:18:13.898Z,100773.09
2023-05-14T19:20:40.543Z,100775.03
2023-05-14T19:23:07.293Z,100777.75
2023-05-14T19:25:34.088Z,100775.66
2023-05-14T19:28:02.163Z,100771.34
2023-05-14T19:30:28.833Z,100780.22
2023-05-14T19:32:55.580Z,100773.91
2023-05-14T19:35:22.660Z,100779.09
2023-05-14T19:37:49.492Z,100777.69
2023-05-14T19:40:16.205Z,100780.53
2023-05-14T19:42:42.869Z,100767.50
2023-05-14T19:45:10.209Z,100774.34
2023-05-14T19:47:38.909Z,100768.69
2023-05-14T19:50:06.126Z,100761.16
2023-05-14T19:52:32.857Z,100767.44
2023-05-14T19:54:59.457Z,100758.81
2023-05-14T19:57:26.794Z,100763.75
2023-05-14T19:59:53.463Z,100766.47
2023-05-14T20:02:21.573Z,100764.56
2023-05-14T20:04:48.254Z,100754.97
2023-05-14T20:07:15.742Z,100762.34
2023-05-14T20:09:43.234Z,100752.16
2023-05-14T20:12:09.957Z,100744.44
2023-05-14T20:14:36.690Z,100746.41
2023-05-14T20:17:03.500Z,100746.03
2023-05-14T20:19:30.323Z,100736.56
2023-05-14T20:21:56.936Z,100743.91
2023-05-14T20:24:23.640Z,100738.47
2023-05-14T20:26:50.248Z,100739.53
2023-05-14T20:29:16.895Z,100730.31
2023-05-14T20:31:43.535Z,100734.22
2023-05-14T20:34:10.184Z,100738.19
2023-05-14T20:36:37.424Z,100732.28
2023-05-14T20:39:06.142Z,100731.31
2023-05-14T20:41:32.850Z,100734.03
2023-05-14T20:43:59.546Z,100723.63
2023-05-14T20:46:26.252Z,100722.00
2023-05-14T20:48:57.010Z,100717.81
2023-05-14T20:51:23.635Z,100727.56
2023-05-14T20:53:50.230Z,100713.56
2023-05-14T20:56:16.865Z,100714.25
2023-05-14T20:58:43.581Z,100714.31
2023-05-14T21:01:10.383Z,100708.19
2023-05-14T21:03:37.235Z,100704.78
2023-05-14T21:06:04.146Z,100696.75
2023-05-14T21:08:32.897Z,100696.84
2023-05-14T21:10:59.599Z,100688.00
2023-05-14T21:13:26.284Z,100691.78
2023-05-14T21:15:52.940Z,100687.84
2023-05-14T21:18:19.547Z,100684.66
2023-05-14T21:20:46.224Z,100681.06
2023-05-14T21:23:12.881Z,100678.63
2023-05-14T21:25:39.515Z,100683.00
2023-05-14T21:28:06.127Z,100679.81
2023-05-14T21:30:32.837Z,100670.84
2023-05-14T21:32:59.502Z,100671.72
2023-05-14T21:35:26.299Z,100661.22
2023-05-14T21:37:53.314Z,100659.44
2023-05-14T21:40:19.934Z,100659.78
2023-05-14T21:42:46.606Z,100658.53
2023-05-14T21:45:13.349Z,100661.34
2023-05-14T21:47:40.069Z,100655.78
2023-05-14T21:50:07.286Z,100653.50
2023-05-14T21:52:33.928Z,100649.94
2023-05-14T21:55:00.654Z,100650.09
2023-05-14T21:57:28.390Z,100650.19
2023-05-14T21:59:55.565Z,100644.34
2023-05-14T22:02:22.362Z,100652.25
2023-05-14T22:04:49.031Z,100642.56
2023-05-14T22:07:15.882Z,100634.59
2023-05-14T22:09:42.525Z,100638.97
2023-05-14T22:12:09.254Z,100634.78
2023-05-14T22:14:35.866Z,100629.66
2023-05-14T22:17:02.577Z,100629.00
2023-05-14T22:19:29.184Z,100627.13
2023-05-14T22:21:56.046Z,100632.50
2023-05-14T22:24:22.736Z,100621.88
2023-05-14T22:26:49.331Z,100624.75
2023-05-14T22:29:15.981Z,100623.13
2023-05-14T22:31:43.026Z,100617.09
2023-05-14T22:34:09.715Z,100620.81
2023-05-14T22:36:36.441Z,100614.03
2023-05-14T22:39:03.070Z,100618.84
2023-05-14T22:41:29.787Z,100615.66
2023-05-14T22:43:56.422Z,100611.56
2023-05-14T22:46:23.072Z,100607.13
2023-05-14T22:48:49.736Z,100613.09
2023-05-14T22:51:16.675Z,100612.09
2023-05-14T22:53:43.337Z,100606.00
2023-05-14T22:56:09.962Z,100602.53
2023-05-14T22:58:36.593Z,100597.34
2023-05-14T23:01:03.589Z,100595.78
2023-05-14T23:03:30.352Z,100591.44
2023-05-14T23:05:56.984Z,100594.22
2023-05-14T23:08:23.632Z,100582.00
2023-05-14T23:10:50.289Z,100588.16
2023-05-14T23:13:17.029Z,100579.41
2023-05-14T23:15:44.097Z,100582.19
2023-05-14T23:18:10.873Z,100578.03
2023-05-14T23:20:37.584Z,100573.97
2023-05-14T23:23:04.263Z,100568.81
2023-05-14T23:25:32.177Z,100560.91
2023-05-14T23:27:58.762Z,100565.38
2023-05-14T23:30:25.466Z,100561.22
2023-05-14T23:32:52.169Z,100562.38
2023-05-14T23:35:18.849Z,100562.75
2023-05-14T23:37:47.397Z,100559.50
2023-05-14T23:40:15.703Z,100556.06
2023-05-14T23:42:42.774Z,100556.25
2023-05-14T23:45:09.814Z,100555.41
2023-05-14T23:47:36.504Z,100558.25
2023-05-14T23:50:03.453Z,100564.59
2023-05-14T23:52:30.088Z,100557.59
2023-05-14T23:54:56.695Z,100549.72
2023-05-14T23:57:23.346Z,100550.59
2023-05-14T23:59:49.964Z,100543.59
